Terminal Aerodrome Forecast
Issued by NWS Austin/San Antonio, TX

Home | Current Version | Previous Version | Text Only | Print | Product List | Glossary On
Versions: 1 2 3 4 5 6 7 8 9 10 11 12 13 14 15 16 17 18 19 20 21 22 23 24 25 26 27 28 29 30 31 32 33
000
FTUS44 KEWX 252320
TAFSAT
TAF
KSAT 252320Z 2600/2706 17006KT P6SM SKC
     FM260800 18005KT P6SM OVC015
     FM260900 19004KT 3SM BR OVC009
     FM261500 17008KT P6SM OVC015
     FM261800 15010KT P6SM BKN040=

USA.gov is the U.S. government's official web portal to all federal, state and local government web resources and services.